Foxtrot — V7YQ5 — position and weather

sailwx.info

Track history (hours):
 
Tides and Currents Weather Stations Pressure Air Temp Water Temp Dewpoint Dewpoint Depression Visibility Wind Speed Wind Dir Waves Ship Positions

Foxtrot

Last reported at 2017-Dec-07 10:05 UTC. Time now 2018-Jan-23 06:25 UTC.
Position N 36°26' E 013°45'.
Warning: this ship's position is 46 days out of date.

Length 180 m; draft 9.7 m.

Type: Cargo ship. MMSI: 538004710.

Date/timePositionNaut miles runAvg speedWind from/ knotsBaromVisibWave heightAir tempDewpointWater temp
2017-Dec-07 10:05N 36°26' E 013°45'113.5
2017-Dec-07 10:00N 36°26' E 013°47'713.9
2017-Dec-07 09:30N 36°24' E 013°55'714.4
2017-Dec-07 08:59N 36°22' E 014°04'713.8
2017-Dec-07 08:30N 36°21' E 014°12'713.7
2017-Dec-07 08:00N 36°19' E 014°20'713.6
2017-Dec-07 07:30N 36°18' E 014°29'713.4
2017-Dec-07 07:00N 36°16' E 014°37'713.3
2017-Dec-07 06:30N 36°14' E 014°44'  
2017-Dec-04 00:56N 32°13' E 033°38'613.7
2017-Dec-04 00:29N 32°11' E 033°45'613.4
2017-Dec-04 00:00N 32°08' E 033°52'713.5
2017-Dec-03 23:30N 32°05' E 033°59'713.2
2017-Dec-03 23:00N 32°02' E 034°06'713.1
2017-Dec-03 22:30N 31°59' E 034°13'612.9
2017-Dec-03 22:00N 31°57' E 034°20'  
Track history (hours):
 
Tides and Currents Weather Stations Pressure Air Temp Water Temp Dewpoint Dewpoint Depression Visibility Wind Speed Wind Dir Waves Ship Positions

Foxtrot

Last reported at 2017-Dec-07 10:05 UTC. Time now 2018-Jan-23 06:25 UTC.
Position N 36°26' E 013°45'.
Warning: this ship's position is 46 days out of date.

Length 180 m; draft 9.7 m.

Type: Cargo ship. MMSI: 538004710.

Date/timePositionNaut miles runAvg speedWind from/ knotsBaromVisibWave heightAir tempDewpointWater temp
2017-Dec-07 10:05N 36°26' E 013°45'113.5
2017-Dec-07 10:00N 36°26' E 013°47'713.9
2017-Dec-07 09:30N 36°24' E 013°55'714.4
2017-Dec-07 08:59N 36°22' E 014°04'713.8
2017-Dec-07 08:30N 36°21' E 014°12'713.7
2017-Dec-07 08:00N 36°19' E 014°20'713.6
2017-Dec-07 07:30N 36°18' E 014°29'713.4
2017-Dec-07 07:00N 36°16' E 014°37'713.3
2017-Dec-07 06:30N 36°14' E 014°44'  
2017-Dec-04 00:56N 32°13' E 033°38'613.7
2017-Dec-04 00:29N 32°11' E 033°45'613.4
2017-Dec-04 00:00N 32°08' E 033°52'713.5
2017-Dec-03 23:30N 32°05' E 033°59'713.2
2017-Dec-03 23:00N 32°02' E 034°06'713.1
2017-Dec-03 22:30N 31°59' E 034°13'612.9
2017-Dec-03 22:00N 31°57' E 034°20'  

Dump ship's entire track history